createdAt,value
2022-12-16T00:01:11.472Z,1.60
2022-12-16T00:03:40.222Z,1.60
2022-12-16T00:06:10.031Z,1.60
2022-12-16T00:08:39.627Z,1.60
2022-12-16T00:11:09.746Z,1.60
2022-12-16T00:13:40.787Z,1.60
2022-12-16T00:16:11.741Z,1.60
2022-12-16T00:18:40.649Z,1.60
2022-12-16T00:21:09.343Z,1.60
2022-12-16T00:23:41.843Z,1.60
2022-12-16T00:26:11.980Z,1.60
2022-12-16T00:28:41.438Z,1.60
2022-12-16T00:31:10.110Z,1.60
2022-12-16T00:33:38.241Z,1.60
2022-12-16T00:36:07.582Z,1.60
2022-12-16T00:38:36.692Z,1.60
2022-12-16T00:41:05.104Z,1.60
2022-12-16T00:43:34.832Z,1.60
2022-12-16T00:46:03.688Z,1.60
2022-12-16T00:48:31.895Z,1.70
2022-12-16T00:51:00.476Z,1.60
2022-12-16T00:53:28.685Z,1.60
2022-12-16T00:56:03.989Z,1.60
2022-12-16T00:58:32.597Z,1.70
2022-12-16T01:01:03.174Z,1.70
2022-12-16T01:03:32.391Z,1.60
2022-12-16T01:06:01.419Z,1.60
2022-12-16T01:08:29.759Z,1.70
2022-12-16T01:10:58.976Z,1.60
2022-12-16T01:13:28.046Z,1.70
2022-12-16T01:15:56.465Z,1.60
2022-12-16T01:18:26.526Z,1.70
2022-12-16T01:20:55.071Z,1.60
2022-12-16T01:23:23.607Z,1.70
2022-12-16T01:25:55.713Z,1.70
2022-12-16T01:28:23.843Z,1.70
2022-12-16T01:30:57.645Z,1.60
2022-12-16T01:33:27.208Z,1.70
2022-12-16T01:36:01.181Z,1.60
2022-12-16T01:38:29.389Z,1.70
2022-12-16T01:40:58.313Z,1.70
2022-12-16T01:43:29.626Z,1.70
2022-12-16T01:46:01.665Z,1.60
2022-12-16T01:48:41.823Z,1.70
2022-12-16T01:51:12.927Z,1.70
2022-12-16T01:53:44.642Z,1.70
2022-12-16T01:56:17.362Z,1.70
2022-12-16T01:58:46.806Z,1.70
2022-12-16T02:01:16.962Z,1.70
2022-12-16T02:03:47.852Z,1.70
2022-12-16T02:06:16.559Z,1.70
2022-12-16T02:08:45.201Z,1.70
2022-12-16T02:11:27.224Z,1.70
2022-12-16T02:14:39.124Z,1.70
2022-12-16T02:17:16.026Z,1.70
2022-12-16T02:20:22.202Z,1.70
2022-12-16T02:23:04.907Z,1.70
2022-12-16T02:25:54.179Z,1.70
2022-12-16T02:28:36.962Z,1.70
2022-12-16T02:31:16.809Z,1.70
2022-12-16T02:34:06.651Z,1.70
2022-12-16T02:36:52.143Z,1.70
2022-12-16T02:39:23.837Z,1.70
2022-12-16T02:41:59.127Z,1.70
2022-12-16T02:44:37.321Z,1.70
2022-12-16T02:47:07.175Z,1.70
2022-12-16T02:49:49.348Z,1.70
2022-12-16T02:52:21.132Z,1.70
2022-12-16T02:54:51.615Z,1.70
2022-12-16T02:58:05.142Z,1.70
2022-12-16T03:00:41.526Z,1.70
2022-12-16T03:03:18.346Z,1.70
2022-12-16T03:05:49.247Z,1.70
2022-12-16T03:08:22.826Z,3.10
2022-12-16T03:10:55.221Z,1.70
2022-12-16T03:13:25.232Z,1.70
2022-12-16T03:15:57.109Z,1.70
2022-12-16T03:18:28.586Z,1.70
2022-12-16T03:21:01.548Z,1.70
2022-12-16T03:23:33.424Z,1.70
2022-12-16T03:26:06.368Z,1.70
2022-12-16T03:28:44.520Z,1.70
2022-12-16T03:31:21.124Z,1.70
2022-12-16T03:33:58.241Z,1.70
2022-12-16T03:36:28.436Z,1.70
2022-12-16T03:38:58.882Z,1.70
2022-12-16T03:41:28.634Z,1.70
2022-12-16T03:43:57.636Z,1.70
2022-12-16T03:46:25.976Z,1.70
2022-12-16T03:48:55.594Z,1.70
2022-12-16T03:51:24.869Z,1.70
2022-12-16T03:53:52.974Z,1.70
2022-12-16T03:56:21.144Z,1.70
2022-12-16T03:58:49.265Z,1.70
2022-12-16T04:01:18.058Z,1.70
2022-12-16T04:03:46.368Z,1.70
2022-12-16T04:06:19.105Z,1.70
2022-12-16T04:08:47.807Z,1.70
2022-12-16T04:11:34.407Z,1.70
2022-12-16T04:14:20.805Z,1.70
2022-12-16T04:17:06.827Z,1.70
2022-12-16T04:19:55.623Z,1.70
2022-12-16T04:22:44.862Z,1.70
2022-12-16T04:25:17.043Z,1.70
2022-12-16T04:27:47.012Z,1.70
2022-12-16T04:30:23.152Z,1.70
2022-12-16T04:33:12.575Z,1.70
2022-12-16T04:35:58.966Z,1.70
2022-12-16T04:38:45.807Z,1.70
2022-12-16T04:41:31.609Z,1.70
2022-12-16T04:44:17.458Z,1.70
2022-12-16T04:47:03.709Z,1.70
2022-12-16T04:49:49.266Z,1.70
2022-12-16T04:52:35.759Z,1.70
2022-12-16T04:55:24.026Z,1.70
2022-12-16T04:58:11.465Z,1.70
2022-12-16T05:00:57.132Z,1.70
2022-12-16T05:03:43.778Z,1.70
2022-12-16T05:06:29.797Z,1.70
2022-12-16T05:09:15.241Z,1.70
2022-12-16T05:12:03.197Z,1.70
2022-12-16T05:14:48.469Z,1.70
2022-12-16T05:17:34.920Z,1.70
2022-12-16T05:20:20.829Z,1.80
2022-12-16T05:23:06.149Z,1.80
2022-12-16T05:25:51.526Z,1.80
2022-12-16T05:28:39.159Z,1.80
2022-12-16T05:31:21.683Z,1.80
2022-12-16T05:34:07.033Z,1.80
2022-12-16T05:36:52.931Z,1.80
2022-12-16T05:39:38.397Z,1.80
2022-12-16T05:42:24.685Z,1.80
2022-12-16T05:45:12.222Z,1.80
2022-12-16T05:47:58.686Z,1.80
2022-12-16T05:50:44.869Z,1.80
2022-12-16T05:53:30.728Z,1.80
2022-12-16T05:56:16.745Z,1.80
2022-12-16T05:59:02.137Z,1.80
2022-12-16T06:02:16.154Z,1.80
2022-12-16T06:05:01.651Z,1.90
2022-12-16T06:07:47.436Z,1.80
2022-12-16T06:10:33.589Z,1.80
2022-12-16T06:13:18.757Z,1.80
2022-12-16T06:16:08.908Z,1.80
2022-12-16T06:18:56.775Z,1.80
2022-12-16T06:21:42.456Z,1.90
2022-12-16T06:24:39.898Z,1.80
2022-12-16T06:27:25.316Z,1.90
2022-12-16T06:30:11.492Z,1.90
2022-12-16T06:32:56.809Z,1.90
2022-12-16T06:35:44.365Z,1.90
2022-12-16T06:38:30.035Z,1.80
2022-12-16T06:41:15.820Z,1.90
2022-12-16T06:44:01.203Z,1.90
2022-12-16T06:46:46.931Z,1.90
2022-12-16T06:49:32.228Z,1.90
2022-12-16T06:52:22.914Z,1.90
2022-12-16T06:55:08.502Z,1.90
2022-12-16T06:57:54.306Z,1.90
2022-12-16T07:00:40.202Z,1.90
2022-12-16T07:03:35.608Z,1.90
2022-12-16T07:06:21.713Z,1.90
2022-12-16T07:09:05.546Z,1.90
2022-12-16T07:11:51.604Z,2.00
2022-12-16T07:14:37.334Z,2.00
2022-12-16T07:17:23.192Z,1.90
2022-12-16T07:20:08.596Z,2.00
2022-12-16T07:23:03.760Z,2.00
2022-12-16T07:25:57.556Z,2.00
2022-12-16T07:28:43.045Z,2.00
2022-12-16T07:31:28.910Z,2.00
2022-12-16T07:34:14.146Z,2.00
2022-12-16T07:37:08.053Z,2.00
2022-12-16T07:39:55.472Z,2.00
2022-12-16T07:42:43.091Z,2.00
2022-12-16T07:45:32.085Z,2.10
2022-12-16T07:48:17.733Z,2.10
2022-12-16T07:51:03.628Z,2.00
2022-12-16T07:53:49.157Z,2.10
2022-12-16T07:56:35.165Z,2.10
2022-12-16T07:59:22.502Z,2.10
2022-12-16T08:02:08.169Z,2.10
2022-12-16T08:04:54.971Z,2.20
2022-12-16T08:07:41.817Z,2.20
2022-12-16T08:10:28.589Z,2.20
2022-12-16T08:13:25.203Z,2.20
2022-12-16T08:16:12.859Z,2.20
2022-12-16T08:18:58.954Z,2.20
2022-12-16T08:21:44.820Z,2.20
2022-12-16T08:24:30.220Z,2.20
2022-12-16T08:27:16.064Z,2.20
2022-12-16T08:30:01.722Z,2.30
2022-12-16T08:32:48.621Z,2.30
2022-12-16T08:35:35.064Z,2.30
2022-12-16T08:38:21.050Z,2.30
2022-12-16T08:41:06.383Z,2.30
2022-12-16T08:43:53.165Z,2.30
2022-12-16T08:46:39.819Z,2.30
2022-12-16T08:49:27.149Z,2.30
2022-12-16T08:52:12.850Z,2.30
2022-12-16T08:54:58.939Z,2.30
2022-12-16T08:57:45.303Z,2.30
2022-12-16T09:00:32.168Z,2.40
2022-12-16T09:03:19.257Z,2.40
2022-12-16T09:06:06.099Z,2.40
2022-12-16T09:08:52.007Z,2.40
2022-12-16T09:11:38.359Z,2.40
2022-12-16T09:14:24.098Z,2.40
2022-12-16T09:17:09.464Z,2.40
2022-12-16T09:19:55.300Z,2.40
2022-12-16T09:22:41.989Z,2.50
2022-12-16T09:25:28.041Z,2.50
2022-12-16T09:28:13.345Z,1.80
2022-12-16T09:30:59.181Z,2.50
2022-12-16T09:33:45.339Z,2.60
2022-12-16T09:36:29.838Z,2.60
2022-12-16T09:39:19.576Z,2.60
2022-12-16T09:42:16.564Z,2.60
2022-12-16T09:45:12.851Z,2.70
2022-12-16T09:48:06.435Z,2.70
2022-12-16T09:50:57.271Z,2.80
2022-12-16T09:53:44.045Z,2.80
2022-12-16T09:56:36.502Z,2.90
2022-12-16T09:59:29.790Z,2.80
2022-12-16T10:02:16.002Z,2.90
2022-12-16T10:05:03.161Z,3.00
2022-12-16T10:07:53.767Z,3.00
2022-12-16T10:10:50.528Z,3.00
2022-12-16T10:13:46.316Z,3.00
2022-12-16T10:16:39.028Z,3.10
2022-12-16T10:19:33.002Z,3.10
2022-12-16T10:22:23.033Z,3.10
2022-12-16T10:25:20.349Z,3.10
2022-12-16T10:28:09.020Z,3.10
2022-12-16T10:30:57.354Z,3.10
2022-12-16T10:33:47.476Z,3.10
2022-12-16T10:36:37.389Z,3.10
2022-12-16T10:39:31.789Z,3.10
2022-12-16T10:42:21.395Z,3.10
2022-12-16T10:45:11.629Z,3.10
2022-12-16T10:47:58.663Z,3.10
2022-12-16T10:50:45.031Z,3.10
2022-12-16T10:53:33.439Z,3.10
2022-12-16T10:56:37.099Z,3.10
2022-12-16T10:59:23.890Z,3.10
2022-12-16T11:02:16.514Z,3.10
2022-12-16T11:05:04.257Z,3.10
2022-12-16T11:07:56.884Z,3.10
2022-12-16T11:10:51.167Z,3.20
2022-12-16T11:13:40.800Z,3.10
2022-12-16T11:16:31.653Z,3.60
2022-12-16T11:19:17.330Z,3.20
2022-12-16T11:22:05.237Z,3.10
2022-12-16T11:24:51.054Z,3.20
2022-12-16T11:27:42.978Z,3.10
2022-12-16T11:30:38.101Z,3.10
2022-12-16T11:33:39.085Z,3.10
2022-12-16T11:36:32.003Z,3.10
2022-12-16T11:39:20.106Z,3.10
2022-12-16T11:42:14.090Z,3.10
2022-12-16T11:45:11.327Z,3.10
2022-12-16T11:48:00.891Z,3.10
2022-12-16T11:50:49.159Z,3.10
2022-12-16T11:53:49.278Z,3.10
2022-12-16T11:56:41.744Z,3.10
2022-12-16T11:59:36.246Z,3.10
2022-12-16T12:02:31.005Z,3.10
2022-12-16T12:05:16.912Z,3.10
2022-12-16T12:08:12.736Z,3.10
2022-12-16T12:11:11.105Z,3.10
2022-12-16T12:14:23.997Z,3.10
2022-12-16T12:17:23.533Z,3.10
2022-12-16T12:20:21.476Z,3.10
2022-12-16T12:23:07.278Z,3.10
2022-12-16T12:26:03.754Z,3.10
2022-12-16T12:29:06.268Z,3.10
2022-12-16T12:32:02.220Z,3.10
2022-12-16T12:34:55.088Z,3.10
2022-12-16T12:37:45.148Z,3.10
2022-12-16T12:40:58.900Z,3.10
2022-12-16T12:44:00.623Z,3.10
2022-12-16T12:46:52.411Z,3.10
2022-12-16T12:49:47.770Z,3.00
2022-12-16T12:52:46.283Z,3.10
2022-12-16T12:55:41.341Z,3.00
2022-12-16T12:58:29.357Z,3.00
2022-12-16T13:01:20.297Z,3.00
2022-12-16T13:04:12.705Z,3.00
2022-12-16T13:07:00.686Z,3.00
2022-12-16T13:09:49.827Z,3.00
2022-12-16T13:12:45.243Z,3.00
2022-12-16T13:15:38.156Z,3.00
2022-12-16T13:18:44.657Z,2.90
2022-12-16T13:22:03.580Z,3.00
2022-12-16T13:25:00.675Z,3.00
2022-12-16T13:27:48.723Z,2.90
2022-12-16T13:30:41.800Z,2.90
2022-12-16T13:33:42.471Z,2.90
2022-12-16T13:36:29.895Z,2.90
2022-12-16T13:39:25.793Z,2.90
2022-12-16T13:42:18.697Z,2.90
2022-12-16T13:45:34.756Z,2.90
2022-12-16T13:48:23.816Z,2.90
2022-12-16T13:51:18.552Z,2.90
2022-12-16T13:54:09.310Z,2.90
2022-12-16T13:57:02.834Z,2.90
2022-12-16T13:59:51.903Z,2.90
2022-12-16T14:02:47.516Z,2.90
2022-12-16T14:05:38.150Z,2.90
2022-12-16T14:08:30.544Z,3.00
2022-12-16T14:11:20.637Z,2.90
2022-12-16T14:14:17.637Z,3.00
2022-12-16T14:17:09.232Z,2.90
2022-12-16T14:20:07.645Z,2.90
2022-12-16T14:23:07.341Z,3.00
2022-12-16T14:25:54.106Z,2.90
2022-12-16T14:28:46.979Z,2.90
2022-12-16T14:31:53.274Z,2.90
2022-12-16T14:34:41.510Z,2.90
2022-12-16T14:37:32.384Z,2.90
2022-12-16T14:40:18.710Z,2.90
2022-12-16T14:43:08.425Z,2.80
2022-12-16T14:45:58.021Z,2.90
2022-12-16T14:48:49.961Z,2.80
2022-12-16T14:51:43.624Z,2.80
2022-12-16T14:54:42.032Z,2.80
2022-12-16T14:57:33.923Z,2.80
2022-12-16T15:00:22.621Z,2.80
2022-12-16T15:03:10.801Z,2.80
2022-12-16T15:05:58.697Z,2.70
2022-12-16T15:08:47.765Z,3.20
2022-12-16T15:11:36.996Z,2.80
2022-12-16T15:14:23.726Z,2.70
2022-12-16T15:17:10.570Z,2.70
2022-12-16T15:20:03.551Z,2.70
2022-12-16T15:22:51.448Z,2.70
2022-12-16T15:25:41.927Z,2.70
2022-12-16T15:28:43.381Z,2.70
2022-12-16T15:31:33.314Z,2.70
2022-12-16T15:34:47.671Z,2.60
2022-12-16T15:37:40.236Z,2.60
2022-12-16T15:40:42.573Z,2.60
2022-12-16T15:43:48.763Z,2.60
2022-12-16T15:46:40.468Z,2.60
2022-12-16T15:49:37.216Z,2.60
2022-12-16T15:52:41.526Z,2.60
2022-12-16T15:55:47.620Z,2.50
2022-12-16T15:58:39.223Z,2.50
2022-12-16T16:01:26.067Z,2.50
2022-12-16T16:04:14.267Z,2.50
2022-12-16T16:07:03.762Z,2.50
2022-12-16T16:09:51.334Z,2.40
2022-12-16T16:12:40.340Z,2.40
2022-12-16T16:15:29.449Z,2.40
2022-12-16T16:18:17.451Z,2.40
2022-12-16T16:21:04.020Z,2.40
2022-12-16T16:23:50.190Z,2.40
2022-12-16T16:26:38.631Z,2.40
2022-12-16T16:29:26.502Z,2.40
2022-12-16T16:32:12.475Z,2.40
2022-12-16T16:34:58.153Z,2.30
2022-12-16T16:37:43.962Z,2.30
2022-12-16T16:40:37.657Z,2.40
2022-12-16T16:43:34.883Z,2.30
2022-12-16T16:46:35.584Z,2.40
2022-12-16T16:49:23.497Z,2.40
2022-12-16T16:52:09.744Z,2.40
2022-12-16T16:54:56.865Z,2.40
2022-12-16T16:57:51.907Z,2.40
2022-12-16T17:00:37.709Z,2.40
2022-12-16T17:03:25.200Z,2.40
2022-12-16T17:06:10.900Z,2.30
2022-12-16T17:08:57.219Z,2.40
2022-12-16T17:11:43.066Z,2.40
2022-12-16T17:14:31.377Z,2.30
2022-12-16T17:17:17.396Z,2.30
2022-12-16T17:20:04.758Z,2.30
2022-12-16T17:22:50.358Z,2.30
2022-12-16T17:25:37.209Z,2.30
2022-12-16T17:28:23.851Z,2.30
2022-12-16T17:31:09.252Z,2.30
2022-12-16T17:33:55.524Z,2.30
2022-12-16T17:36:42.837Z,2.30
2022-12-16T17:39:29.411Z,2.30
2022-12-16T17:42:15.831Z,2.30
2022-12-16T17:45:01.286Z,2.30
2022-12-16T17:47:47.261Z,2.30
2022-12-16T17:50:32.686Z,2.20
2022-12-16T17:53:19.850Z,2.20
2022-12-16T17:56:20.190Z,2.20
2022-12-16T17:59:06.435Z,2.10
2022-12-16T18:01:52.009Z,2.10
2022-12-16T18:04:37.495Z,2.10
2022-12-16T18:07:23.426Z,2.00
2022-12-16T18:10:10.901Z,2.00
2022-12-16T18:12:56.513Z,1.90
2022-12-16T18:15:42.713Z,1.80
2022-12-16T18:18:28.132Z,1.80
2022-12-16T18:21:13.962Z,1.70
2022-12-16T18:23:59.279Z,1.60
2022-12-16T18:26:47.310Z,1.60
2022-12-16T18:29:32.840Z,1.50
2022-12-16T18:32:19.047Z,1.40
2022-12-16T18:35:04.407Z,1.30
2022-12-16T18:37:50.487Z,1.20
2022-12-16T18:40:51.367Z,1.10
2022-12-16T18:43:38.955Z,1.10
2022-12-16T18:46:27.322Z,1.00
2022-12-16T18:49:13.394Z,0.90
2022-12-16T18:51:58.659Z,0.80
2022-12-16T18:54:44.428Z,0.80
2022-12-16T18:57:30.736Z,0.70
2022-12-16T19:00:29.781Z,0.70
2022-12-16T19:03:15.376Z,0.60
2022-12-16T19:06:12.935Z,1.50
2022-12-16T19:08:58.876Z,0.50
2022-12-16T19:11:46.204Z,0.50
2022-12-16T19:14:35.161Z,0.40
2022-12-16T19:17:22.446Z,0.40
2022-12-16T19:20:07.658Z,0.30
2022-12-16T19:22:53.533Z,0.30
2022-12-16T19:25:41.827Z,0.20
2022-12-16T19:28:32.618Z,0.20
2022-12-16T19:31:18.495Z,0.20
2022-12-16T19:34:05.511Z,0.10
2022-12-16T19:36:51.199Z,0.10
2022-12-16T19:39:38.196Z,0.10
2022-12-16T19:42:24.261Z,0.10
2022-12-16T19:45:09.718Z,0.10
2022-12-16T19:47:55.109Z,0.10
2022-12-16T19:50:43.645Z,0.10
2022-12-16T19:53:29.379Z,0.10
2022-12-16T19:56:15.411Z,0.10
2022-12-16T19:59:01.456Z,0.00
2022-12-16T20:01:48.110Z,0.00
2022-12-16T20:04:34.071Z,-0.10
2022-12-16T20:10:26.939Z,-0.10
2022-12-16T20:13:16.937Z,-0.10
2022-12-16T20:16:05.660Z,-0.10
2022-12-16T20:18:51.800Z,-0.10
2022-12-16T20:21:37.503Z,-0.10
2022-12-16T20:24:25.369Z,-0.20
2022-12-16T20:27:10.769Z,-0.20
2022-12-16T20:29:56.561Z,-0.20
2022-12-16T20:32:41.853Z,-0.20
2022-12-16T20:35:27.678Z,-0.20
2022-12-16T20:38:13.214Z,-0.20
2022-12-16T20:41:00.399Z,-0.10
2022-12-16T20:43:46.207Z,-0.10
2022-12-16T20:46:32.077Z,0.00
2022-12-16T20:49:20.995Z,0.00
2022-12-16T20:52:06.970Z,0.10
2022-12-16T20:54:52.304Z,0.10
2022-12-16T20:57:43.492Z,0.20
2022-12-16T21:00:30.917Z,0.20
2022-12-16T21:03:16.719Z,0.30
2022-12-16T21:06:02.824Z,0.30
2022-12-16T21:08:48.815Z,0.40
2022-12-16T21:11:34.133Z,0.40
2022-12-16T21:14:21.451Z,0.40
2022-12-16T21:17:07.202Z,0.40
2022-12-16T21:19:52.918Z,0.40
2022-12-16T21:22:41.699Z,0.50
2022-12-16T21:25:27.952Z,0.50
2022-12-16T21:28:15.497Z,0.50
2022-12-16T21:31:02.205Z,0.50
2022-12-16T21:33:48.312Z,0.60
2022-12-16T21:36:34.545Z,0.50
2022-12-16T21:39:20.312Z,0.60
2022-12-16T21:42:05.754Z,0.60
2022-12-16T21:44:51.296Z,0.60
2022-12-16T21:47:39.360Z,0.60
2022-12-16T21:50:25.384Z,0.60
2022-12-16T21:53:11.035Z,0.60
2022-12-16T21:55:56.760Z,0.60
2022-12-16T21:58:43.698Z,0.60
2022-12-16T22:01:30.136Z,0.50
2022-12-16T22:04:17.409Z,0.60
2022-12-16T22:07:04.399Z,0.50
2022-12-16T22:09:50.134Z,0.50
2022-12-16T22:12:35.555Z,0.50
2022-12-16T22:15:21.482Z,0.50
2022-12-16T22:18:07.060Z,0.50
2022-12-16T22:20:54.072Z,0.50
2022-12-16T22:23:41.049Z,0.50
2022-12-16T22:26:27.208Z,0.50
2022-12-16T22:29:13.197Z,0.50
2022-12-16T22:32:00.373Z,0.50
2022-12-16T22:34:45.983Z,0.40
2022-12-16T22:37:33.103Z,0.40
2022-12-16T22:40:18.808Z,0.40
2022-12-16T22:43:06.774Z,0.40
2022-12-16T22:45:52.395Z,0.30
2022-12-16T22:48:37.774Z,0.30
2022-12-16T22:51:28.508Z,0.30
2022-12-16T22:54:15.190Z,0.20
2022-12-16T22:57:00.045Z,0.20
2022-12-16T22:59:46.220Z,0.20
2022-12-16T23:02:32.849Z,0.10
2022-12-16T23:05:23.642Z,0.10
2022-12-16T23:08:13.214Z,0.10
2022-12-16T23:11:00.500Z,0.00
2022-12-16T23:13:47.120Z,0.00
2022-12-16T23:16:33.065Z,-1.70
2022-12-16T23:19:19.264Z,-0.10
2022-12-16T23:22:07.354Z,-0.10
2022-12-16T23:24:52.704Z,-0.10
2022-12-16T23:27:41.317Z,-0.20
2022-12-16T23:30:28.282Z,-0.20
2022-12-16T23:32:29.871Z,-0.10
2022-12-16T23:33:17.547Z,-0.20
2022-12-16T23:36:03.187Z,-0.20
2022-12-16T23:38:48.969Z,-0.20
2022-12-16T23:41:34.836Z,-0.20
2022-12-16T23:44:22.206Z,-0.20
2022-12-16T23:47:08.146Z,-0.20
2022-12-16T23:49:53.759Z,-0.20
2022-12-16T23:52:42.211Z,-0.20
2022-12-16T23:55:28.892Z,-0.20
2022-12-16T23:58:18.141Z,-0.10
